sensor_id;sensor_type;location;lat;lon;timestamp;temperature;humidity
8707;DHT22;4390;49.302;9.306;2022-11-15T06:14:26;9.20;93.10
8707;DHT22;4390;49.302;9.306;2022-11-15T06:17:12;8.90;93.30
8707;DHT22;4390;49.302;9.306;2022-11-15T06:19:57;8.50;94.20
8707;DHT22;4390;49.302;9.306;2022-11-15T06:22:43;8.20;94.80
8707;DHT22;4390;49.302;9.306;2022-11-15T06:25:29;7.80;95.50
8707;DHT22;4390;49.302;9.306;2022-11-15T06:28:15;7.50;96.20
8707;DHT22;4390;49.302;9.306;2022-11-15T06:31:05;7.40;96.60
8707;DHT22;4390;49.302;9.306;2022-11-15T06:33:50;7.20;96.90
8707;DHT22;4390;49.302;9.306;2022-11-15T06:36:36;7.00;97.10
8707;DHT22;4390;49.302;9.306;2022-11-15T06:39:21;7.20;97.20
8707;DHT22;4390;49.302;9.306;2022-11-15T06:42:08;7.00;97.00
8707;DHT22;4390;49.302;9.306;2022-11-15T06:44:54;6.90;97.40
8707;DHT22;4390;49.302;9.306;2022-11-15T06:47:46;6.80;97.50
8707;DHT22;4390;49.302;9.306;2022-11-15T06:50:32;6.60;97.80
8707;DHT22;4390;49.302;9.306;2022-11-15T06:53:18;6.50;98.10
8707;DHT22;4390;49.302;9.306;2022-11-15T06:56:05;6.60;98.10
8707;DHT22;4390;49.302;9.306;2022-11-15T06:58:50;6.50;98.30
8707;DHT22;4390;49.302;9.306;2022-11-15T07:01:36;6.70;98.10
8707;DHT22;4390;49.302;9.306;2022-11-15T07:04:21;6.70;97.80
8707;DHT22;4390;49.302;9.306;2022-11-15T07:07:07;6.50;98.20
8707;DHT22;4390;49.302;9.306;2022-11-15T07:09:52;6.60;98.30
8707;DHT22;4390;49.302;9.306;2022-11-15T07:12:37;6.50;98.10
8707;DHT22;4390;49.302;9.306;2022-11-15T07:15:25;6.80;98.20
8707;DHT22;4390;49.302;9.306;2022-11-15T07:18:11;6.80;97.80
8707;DHT22;4390;49.302;9.306;2022-11-15T07:21:00;6.80;97.90
8707;DHT22;4390;49.302;9.306;2022-11-15T07:23:46;6.60;98.30
8707;DHT22;4390;49.302;9.306;2022-11-15T07:26:31;6.70;98.20
8707;DHT22;4390;49.302;9.306;2022-11-15T07:29:17;6.70;98.30
8707;DHT22;4390;49.302;9.306;2022-11-15T07:32:02;6.80;98.20
8707;DHT22;4390;49.302;9.306;2022-11-15T07:34:48;6.90;98.00
8707;DHT22;4390;49.302;9.306;2022-11-15T07:37:33;7.10;97.80
8707;DHT22;4390;49.302;9.306;2022-11-15T07:40:19;7.30;97.40
8707;DHT22;4390;49.302;9.306;2022-11-15T07:43:07;7.20;97.40
8707;DHT22;4390;49.302;9.306;2022-11-15T07:45:53;7.10;97.90
8707;DHT22;4390;49.302;9.306;2022-11-15T07:48:44;7.00;98.10
8707;DHT22;4390;49.302;9.306;2022-11-15T07:51:30;7.10;98.20
8707;DHT22;4390;49.302;9.306;2022-11-15T07:54:15;7.30;97.90
8707;DHT22;4390;49.302;9.306;2022-11-15T07:57:00;7.40;97.90
8707;DHT22;4390;49.302;9.306;2022-11-15T07:59:51;7.50;97.40
8707;DHT22;4390;49.302;9.306;2022-11-15T08:02:37;7.60;97.40
8707;DHT22;4390;49.302;9.306;2022-11-15T08:05:22;7.60;97.50
8707;DHT22;4390;49.302;9.306;2022-11-15T08:08:09;7.60;97.70
8707;DHT22;4390;49.302;9.306;2022-11-15T08:10:57;7.80;97.30
8707;DHT22;4390;49.302;9.306;2022-11-15T08:13:42;7.70;97.50
8707;DHT22;4390;49.302;9.306;2022-11-15T08:16:28;7.90;97.10
8707;DHT22;4390;49.302;9.306;2022-11-15T08:19:13;7.90;97.00
8707;DHT22;4390;49.302;9.306;2022-11-15T08:21:59;7.90;97.20
8707;DHT22;4390;49.302;9.306;2022-11-15T08:24:44;7.90;97.40
8707;DHT22;4390;49.302;9.306;2022-11-15T08:27:29;8.10;97.10
8707;DHT22;4390;49.302;9.306;2022-11-15T08:30:15;8.30;96.60
8707;DHT22;4390;49.302;9.306;2022-11-15T08:33:01;8.60;96.30
8707;DHT22;4390;49.302;9.306;2022-11-15T08:35:46;8.70;95.90
8707;DHT22;4390;49.302;9.306;2022-11-15T08:38:31;8.80;96.00
8707;DHT22;4390;49.302;9.306;2022-11-15T08:41:34;9.00;95.90
8707;DHT22;4390;49.302;9.306;2022-11-15T08:44:20;9.10;95.80
8707;DHT22;4390;49.302;9.306;2022-11-15T08:47:07;9.20;95.40
8707;DHT22;4390;49.302;9.306;2022-11-15T08:49:52;9.50;95.00
8707;DHT22;4390;49.302;9.306;2022-11-15T08:52:38;9.60;94.90
8707;DHT22;4390;49.302;9.306;2022-11-15T08:55:23;9.80;94.40
8707;DHT22;4390;49.302;9.306;2022-11-15T08:58:09;9.90;94.50
8707;DHT22;4390;49.302;9.306;2022-11-15T09:00:54;10.10;94.00
8707;DHT22;4390;49.302;9.306;2022-11-15T09:03:41;10.10;93.90
8707;DHT22;4390;49.302;9.306;2022-11-15T09:06:26;10.30;93.90
8707;DHT22;4390;49.302;9.306;2022-11-15T09:09:12;10.40;93.50
8707;DHT22;4390;49.302;9.306;2022-11-15T09:11:57;10.50;93.70
8707;DHT22;4390;49.302;9.306;2022-11-15T09:14:46;10.50;93.50
8707;DHT22;4390;49.302;9.306;2022-11-15T09:17:31;10.80;93.00
8707;DHT22;4390;49.302;9.306;2022-11-15T09:20:17;11.00;92.70
8707;DHT22;4390;49.302;9.306;2022-11-15T09:23:04;11.20;92.20
8707;DHT22;4390;49.302;9.306;2022-11-15T09:25:50;11.30;92.00
8707;DHT22;4390;49.302;9.306;2022-11-15T09:28:36;11.10;92.30
8707;DHT22;4390;49.302;9.306;2022-11-15T09:31:22;11.10;92.40
8707;DHT22;4390;49.302;9.306;2022-11-15T09:34:07;11.10;93.00
8707;DHT22;4390;49.302;9.306;2022-11-15T09:36:52;11.10;92.60
8707;DHT22;4390;49.302;9.306;2022-11-15T09:39:38;11.20;92.80
8707;DHT22;4390;49.302;9.306;2022-11-15T09:45:31;11.40;92.60
8707;DHT22;4390;49.302;9.306;2022-11-15T09:51:41;11.60;91.80
8707;DHT22;4390;49.302;9.306;2022-11-15T09:54:29;11.50;91.90
8707;DHT22;4390;49.302;9.306;2022-11-15T09:57:38;11.20;92.80
8707;DHT22;4390;49.302;9.306;2022-11-15T10:00:22;11.50;92.60
8707;DHT22;4390;49.302;9.306;2022-11-15T10:03:18;11.50;92.40
8707;DHT22;4390;49.302;9.306;2022-11-15T10:05:47;11.50;92.90
8707;DHT22;4390;49.302;9.306;2022-11-15T10:08:25;11.60;93.00
8707;DHT22;4390;49.302;9.306;2022-11-15T10:11:00;11.90;92.50
8707;DHT22;4390;49.302;9.306;2022-11-15T10:13:48;12.00;92.30
8707;DHT22;4390;49.302;9.306;2022-11-15T10:24:42;12.20;92.10
8707;DHT22;4390;49.302;9.306;2022-11-15T10:27:12;12.30;91.90
8707;DHT22;4390;49.302;9.306;2022-11-15T10:29:48;12.40;91.80
8707;DHT22;4390;49.302;9.306;2022-11-15T10:32:20;12.30;92.20
8707;DHT22;4390;49.302;9.306;2022-11-15T10:34:49;12.30;92.10
8707;DHT22;4390;49.302;9.306;2022-11-15T10:37:30;12.40;92.00
8707;DHT22;4390;49.302;9.306;2022-11-15T10:40:23;12.60;91.90
8707;DHT22;4390;49.302;9.306;2022-11-15T10:45:36;12.40;92.30
8707;DHT22;4390;49.302;9.306;2022-11-15T10:50:44;12.40;92.90
8707;DHT22;4390;49.302;9.306;2022-11-15T10:53:19;12.50;92.20
8707;DHT22;4390;49.302;9.306;2022-11-15T10:55:48;12.70;91.90
8707;DHT22;4390;49.302;9.306;2022-11-15T10:58:42;12.90;91.70
8707;DHT22;4390;49.302;9.306;2022-11-15T11:03:40;12.90;91.50
8707;DHT22;4390;49.302;9.306;2022-11-15T11:06:11;12.90;91.30
8707;DHT22;4390;49.302;9.306;2022-11-15T11:08:38;12.70;91.90
8707;DHT22;4390;49.302;9.306;2022-11-15T11:11:06;12.70;92.20
8707;DHT22;4390;49.302;9.306;2022-11-15T11:13:36;12.80;91.80
8707;DHT22;4390;49.302;9.306;2022-11-15T11:24:25;12.60;92.20
8707;DHT22;4390;49.302;9.306;2022-11-15T11:27:11;12.60;92.20
8707;DHT22;4390;49.302;9.306;2022-11-15T11:32:55;12.60;92.40
8707;DHT22;4390;49.302;9.306;2022-11-15T11:35:38;12.50;92.80
8707;DHT22;4390;49.302;9.306;2022-11-15T11:38:48;12.50;93.10
8707;DHT22;4390;49.302;9.306;2022-11-15T11:47:23;12.60;92.50
8707;DHT22;4390;49.302;9.306;2022-11-15T11:49:51;12.60;92.90
8707;DHT22;4390;49.302;9.306;2022-11-15T11:52:28;12.60;93.10
8707;DHT22;4390;49.302;9.306;2022-11-15T12:00:22;12.80;93.50
8707;DHT22;4390;49.302;9.306;2022-11-15T12:06:02;13.10;92.50
8707;DHT22;4390;49.302;9.306;2022-11-15T12:08:50;13.40;91.90
8707;DHT22;4390;49.302;9.306;2022-11-15T12:13:59;13.70;90.70
8707;DHT22;4390;49.302;9.306;2022-11-15T12:16:28;14.20;90.00
8707;DHT22;4390;49.302;9.306;2022-11-15T12:19:02;16.40;87.10
8707;DHT22;4390;49.302;9.306;2022-11-15T12:24:04;19.40;79.80
8707;DHT22;4390;49.302;9.306;2022-11-15T12:26:39;19.30;80.20
8707;DHT22;4390;49.302;9.306;2022-11-15T12:29:19;18.60;80.60
8707;DHT22;4390;49.302;9.306;2022-11-15T12:31:51;18.20;80.90
8707;DHT22;4390;49.302;9.306;2022-11-15T12:36:50;17.20;82.60
8707;DHT22;4390;49.302;9.306;2022-11-15T12:39:17;16.80;83.10
8707;DHT22;4390;49.302;9.306;2022-11-15T12:47:02;15.70;85.30
8707;DHT22;4390;49.302;9.306;2022-11-15T12:59:56;14.80;87.50
8707;DHT22;4390;49.302;9.306;2022-11-15T13:02:26;14.70;87.90
8707;DHT22;4390;49.302;9.306;2022-11-15T13:05:25;14.70;87.70
8707;DHT22;4390;49.302;9.306;2022-11-15T13:17:44;14.30;89.70
8707;DHT22;4390;49.302;9.306;2022-11-15T13:35:51;13.90;90.20
8707;DHT22;4390;49.302;9.306;2022-11-15T13:38:33;13.80;90.00
8707;DHT22;4390;49.302;9.306;2022-11-15T13:41:14;13.70;91.10
8707;DHT22;4390;49.302;9.306;2022-11-15T13:43:44;13.60;92.30
8707;DHT22;4390;49.302;9.306;2022-11-15T13:48:41;13.50;92.50
8707;DHT22;4390;49.302;9.306;2022-11-15T13:51:23;13.70;90.30
8707;DHT22;4390;49.302;9.306;2022-11-15T13:54:13;13.80;90.40
8707;DHT22;4390;49.302;9.306;2022-11-15T13:56:45;13.70;92.10
8707;DHT22;4390;49.302;9.306;2022-11-15T14:01:49;13.40;93.60
8707;DHT22;4390;49.302;9.306;2022-11-15T14:04:19;13.30;92.90
8707;DHT22;4390;49.302;9.306;2022-11-15T14:06:50;13.40;92.50
8707;DHT22;4390;49.302;9.306;2022-11-15T14:09:38;13.50;91.40
8707;DHT22;4390;49.302;9.306;2022-11-15T14:14:56;13.50;94.10
8707;DHT22;4390;49.302;9.306;2022-11-15T14:19:57;13.50;94.00
8707;DHT22;4390;49.302;9.306;2022-11-15T14:22:24;13.60;92.90
8707;DHT22;4390;49.302;9.306;2022-11-15T14:27:43;13.40;93.60
8707;DHT22;4390;49.302;9.306;2022-11-15T14:30:15;13.30;93.70
8707;DHT22;4390;49.302;9.306;2022-11-15T14:32:47;13.20;94.00
8707;DHT22;4390;49.302;9.306;2022-11-15T14:35:18;13.20;94.10
8707;DHT22;4390;49.302;9.306;2022-11-15T14:37:45;13.00;94.90
8707;DHT22;4390;49.302;9.306;2022-11-15T14:40:15;13.00;95.20
8707;DHT22;4390;49.302;9.306;2022-11-15T14:42:44;13.00;95.20
8707;DHT22;4390;49.302;9.306;2022-11-15T14:45:14;12.90;95.20
8707;DHT22;4390;49.302;9.306;2022-11-15T14:47:41;12.90;95.30
8707;DHT22;4390;49.302;9.306;2022-11-15T14:50:17;12.90;95.40
8707;DHT22;4390;49.302;9.306;2022-11-15T14:52:45;13.10;95.30
8707;DHT22;4390;49.302;9.306;2022-11-15T14:55:31;13.00;95.40
8707;DHT22;4390;49.302;9.306;2022-11-15T14:58:04;12.90;95.70
8707;DHT22;4390;49.302;9.306;2022-11-15T15:00:34;12.90;96.00
8707;DHT22;4390;49.302;9.306;2022-11-15T15:03:02;12.80;96.30
8707;DHT22;4390;49.302;9.306;2022-11-15T15:05:40;12.70;96.50
8707;DHT22;4390;49.302;9.306;2022-11-15T15:08:08;12.70;96.40
8707;DHT22;4390;49.302;9.306;2022-11-15T15:10:38;12.70;96.30
8707;DHT22;4390;49.302;9.306;2022-11-15T15:13:20;12.70;96.40
8707;DHT22;4390;49.302;9.306;2022-11-15T15:15:48;12.60;96.50
8707;DHT22;4390;49.302;9.306;2022-11-15T15:18:16;12.60;96.60
8707;DHT22;4390;49.302;9.306;2022-11-15T15:20:44;12.70;96.30
8707;DHT22;4390;49.302;9.306;2022-11-15T15:23:17;12.70;96.40
8707;DHT22;4390;49.302;9.306;2022-11-15T15:25:45;12.50;96.50
8707;DHT22;4390;49.302;9.306;2022-11-15T15:28:12;12.70;96.60
8707;DHT22;4390;49.302;9.306;2022-11-15T15:30:39;12.70;96.50
8707;DHT22;4390;49.302;9.306;2022-11-15T15:33:06;12.50;96.70
8707;DHT22;4390;49.302;9.306;2022-11-15T15:35:34;12.40;97.00
8707;DHT22;4390;49.302;9.306;2022-11-15T15:38:01;12.60;96.90
8707;DHT22;4390;49.302;9.306;2022-11-15T15:40:29;12.50;96.70
8707;DHT22;4390;49.302;9.306;2022-11-15T15:42:57;12.40;97.20
8707;DHT22;4390;49.302;9.306;2022-11-15T15:45:25;12.30;97.30
8707;DHT22;4390;49.302;9.306;2022-11-15T15:47:52;12.30;97.20
8707;DHT22;4390;49.302;9.306;2022-11-15T15:52:54;12.20;97.30
8707;DHT22;4390;49.302;9.306;2022-11-15T15:55:21;12.20;97.20
8707;DHT22;4390;49.302;9.306;2022-11-15T15:57:48;12.40;97.00
8707;DHT22;4390;49.302;9.306;2022-11-15T16:00:16;12.20;96.90
8707;DHT22;4390;49.302;9.306;2022-11-15T16:02:43;12.00;97.30
8707;DHT22;4390;49.302;9.306;2022-11-15T16:05:11;12.00;97.50
8707;DHT22;4390;49.302;9.306;2022-11-15T16:07:39;12.10;97.20
8707;DHT22;4390;49.302;9.306;2022-11-15T16:12:42;11.90;97.50
8707;DHT22;4390;49.302;9.306;2022-11-15T16:15:09;11.70;97.80
8707;DHT22;4390;49.302;9.306;2022-11-15T16:17:40;11.70;97.80
8707;DHT22;4390;49.302;9.306;2022-11-15T16:20:38;11.60;97.90
8707;DHT22;4390;49.302;9.306;2022-11-15T16:23:17;11.50;98.00
8707;DHT22;4390;49.302;9.306;2022-11-15T16:25:51;11.40;98.00
8707;DHT22;4390;49.302;9.306;2022-11-15T16:28:28;11.40;98.10
8707;DHT22;4390;49.302;9.306;2022-11-15T16:31:08;11.40;97.90
8707;DHT22;4390;49.302;9.306;2022-11-15T16:33:35;11.80;97.50
8707;DHT22;4390;49.302;9.306;2022-11-15T16:36:05;12.00;96.80
8707;DHT22;4390;49.302;9.306;2022-11-15T16:38:32;12.00;96.50
8707;DHT22;4390;49.302;9.306;2022-11-15T16:40:59;11.80;96.90
8707;DHT22;4390;49.302;9.306;2022-11-15T16:43:26;11.70;97.10
8707;DHT22;4390;49.302;9.306;2022-11-15T16:45:54;11.70;97.20
8707;DHT22;4390;49.302;9.306;2022-11-15T16:48:25;11.70;97.10
8707;DHT22;4390;49.302;9.306;2022-11-15T16:50:55;11.80;96.90
8707;DHT22;4390;49.302;9.306;2022-11-15T16:53:23;12.00;96.50
8707;DHT22;4390;49.302;9.306;2022-11-15T16:55:50;12.00;96.30
8707;DHT22;4390;49.302;9.306;2022-11-15T16:58:17;11.80;96.50
8707;DHT22;4390;49.302;9.306;2022-11-15T17:00:43;11.70;96.70
8707;DHT22;4390;49.302;9.306;2022-11-15T17:03:10;11.60;96.80
8707;DHT22;4390;49.302;9.306;2022-11-15T17:05:37;11.60;96.90
8707;DHT22;4390;49.302;9.306;2022-11-15T17:08:04;11.60;97.00
8707;DHT22;4390;49.302;9.306;2022-11-15T17:10:31;11.50;97.00
8707;DHT22;4390;49.302;9.306;2022-11-15T17:12:58;11.40;97.30
8707;DHT22;4390;49.302;9.306;2022-11-15T17:15:25;11.30;97.50
8707;DHT22;4390;49.302;9.306;2022-11-15T17:17:52;11.20;97.70
8707;DHT22;4390;49.302;9.306;2022-11-15T17:20:22;11.30;97.50
8707;DHT22;4390;49.302;9.306;2022-11-15T17:22:49;11.30;97.40
8707;DHT22;4390;49.302;9.306;2022-11-15T17:25:15;11.30;97.40
8707;DHT22;4390;49.302;9.306;2022-11-15T17:27:42;11.00;98.00
8707;DHT22;4390;49.302;9.306;2022-11-15T17:30:11;10.90;98.30
8707;DHT22;4390;49.302;9.306;2022-11-15T17:32:38;11.00;98.30
8707;DHT22;4390;49.302;9.306;2022-11-15T17:35:05;10.90;98.20
8707;DHT22;4390;49.302;9.306;2022-11-15T17:37:41;11.00;98.30
8707;DHT22;4390;49.302;9.306;2022-11-15T17:40:08;11.00;98.20
8707;DHT22;4390;49.302;9.306;2022-11-15T17:42:35;11.10;98.00
8707;DHT22;4390;49.302;9.306;2022-11-15T17:45:02;11.10;98.00
8707;DHT22;4390;49.302;9.306;2022-11-15T17:47:36;11.10;98.10
8707;DHT22;4390;49.302;9.306;2022-11-15T17:50:02;10.80;98.30
8707;DHT22;4390;49.302;9.306;2022-11-15T17:52:29;10.90;98.30
8707;DHT22;4390;49.302;9.306;2022-11-15T17:54:56;10.80;98.30
8707;DHT22;4390;49.302;9.306;2022-11-15T17:57:23;10.80;98.30
8707;DHT22;4390;49.302;9.306;2022-11-15T17:59:50;10.90;98.30
8707;DHT22;4390;49.302;9.306;2022-11-15T18:02:16;11.00;98.20
8707;DHT22;4390;49.302;9.306;2022-11-15T18:04:43;10.80;98.30
8707;DHT22;4390;49.302;9.306;2022-11-15T18:07:10;10.80;98.30
8707;DHT22;4390;49.302;9.306;2022-11-15T18:09:39;10.90;98.30
8707;DHT22;4390;49.302;9.306;2022-11-15T18:12:10;10.90;98.30
8707;DHT22;4390;49.302;9.306;2022-11-15T18:14:37;10.80;98.30
8707;DHT22;4390;49.302;9.306;2022-11-15T18:17:03;10.60;98.30
8707;DHT22;4390;49.302;9.306;2022-11-15T18:19:30;10.60;98.30
8707;DHT22;4390;49.302;9.306;2022-11-15T18:21:57;10.60;98.30
8707;DHT22;4390;49.302;9.306;2022-11-15T18:24:32;10.70;98.30
8707;DHT22;4390;49.302;9.306;2022-11-15T18:27:01;10.90;98.30
8707;DHT22;4390;49.302;9.306;2022-11-15T18:29:28;10.90;98.30
8707;DHT22;4390;49.302;9.306;2022-11-15T18:31:55;10.70;98.30
8707;DHT22;4390;49.302;9.306;2022-11-15T18:34:24;10.90;98.30
8707;DHT22;4390;49.302;9.306;2022-11-15T18:36:52;10.90;98.30
8707;DHT22;4390;49.302;9.306;2022-11-15T18:39:19;11.10;98.20
8707;DHT22;4390;49.302;9.306;2022-11-15T18:41:47;10.90;98.30
8707;DHT22;4390;49.302;9.306;2022-11-15T18:44:14;10.80;98.30
8707;DHT22;4390;49.302;9.306;2022-11-15T18:46:42;10.70;98.30
8707;DHT22;4390;49.302;9.306;2022-11-15T18:49:12;10.70;98.30
8707;DHT22;4390;49.302;9.306;2022-11-15T18:51:39;10.70;98.30
8707;DHT22;4390;49.302;9.306;2022-11-15T18:54:09;10.90;98.30
8707;DHT22;4390;49.302;9.306;2022-11-15T18:56:36;11.00;98.20
8707;DHT22;4390;49.302;9.306;2022-11-15T18:59:03;11.20;97.80
8707;DHT22;4390;49.302;9.306;2022-11-15T19:01:36;11.10;97.90
8707;DHT22;4390;49.302;9.306;2022-11-15T19:04:09;11.10;97.50
8707;DHT22;4390;49.302;9.306;2022-11-15T19:06:41;10.90;98.20
8707;DHT22;4390;49.302;9.306;2022-11-15T19:09:10;10.90;98.30
8707;DHT22;4390;49.302;9.306;2022-11-15T19:11:38;10.90;98.20
8707;DHT22;4390;49.302;9.306;2022-11-15T19:14:10;10.70;98.30
8707;DHT22;4390;49.302;9.306;2022-11-15T19:16:43;10.60;98.30
8707;DHT22;4390;49.302;9.306;2022-11-15T19:19:22;10.60;98.30
8707;DHT22;4390;49.302;9.306;2022-11-15T19:21:50;10.60;98.30
8707;DHT22;4390;49.302;9.306;2022-11-15T19:24:17;10.60;98.30
8707;DHT22;4390;49.302;9.306;2022-11-15T19:26:45;10.60;98.30
8707;DHT22;4390;49.302;9.306;2022-11-15T19:29:12;10.50;98.30
8707;DHT22;4390;49.302;9.306;2022-11-15T19:31:40;10.50;98.30
8707;DHT22;4390;49.302;9.306;2022-11-15T19:34:07;10.60;98.30
8707;DHT22;4390;49.302;9.306;2022-11-15T19:36:38;10.50;98.30
8707;DHT22;4390;49.302;9.306;2022-11-15T19:39:08;10.50;98.30
8707;DHT22;4390;49.302;9.306;2022-11-15T19:41:36;10.80;98.30
8707;DHT22;4390;49.302;9.306;2022-11-15T19:44:05;10.90;98.30
8707;DHT22;4390;49.302;9.306;2022-11-15T19:46:32;11.00;98.20
8707;DHT22;4390;49.302;9.306;2022-11-15T19:48:59;11.00;98.00
8707;DHT22;4390;49.302;9.306;2022-11-15T19:51:27;11.20;97.80
8707;DHT22;4390;49.302;9.306;2022-11-15T19:53:58;11.10;97.60
8707;DHT22;4390;49.302;9.306;2022-11-15T19:56:26;11.10;97.60
8707;DHT22;4390;49.302;9.306;2022-11-15T19:58:54;11.10;97.60
8707;DHT22;4390;49.302;9.306;2022-11-15T20:01:26;11.10;97.50
8707;DHT22;4390;49.302;9.306;2022-11-15T20:03:55;11.20;97.40
8707;DHT22;4390;49.302;9.306;2022-11-15T20:06:28;11.30;97.10
8707;DHT22;4390;49.302;9.306;2022-11-15T20:08:56;11.30;97.10
8707;DHT22;4390;49.302;9.306;2022-11-15T20:11:24;11.20;97.30
8707;DHT22;4390;49.302;9.306;2022-11-15T20:13:55;11.20;97.30
8707;DHT22;4390;49.302;9.306;2022-11-15T20:16:23;11.20;97.30
8707;DHT22;4390;49.302;9.306;2022-11-15T20:18:50;11.20;97.30
8707;DHT22;4390;49.302;9.306;2022-11-15T20:21:18;11.20;97.20
8707;DHT22;4390;49.302;9.306;2022-11-15T20:23:46;11.10;97.40
8707;DHT22;4390;49.302;9.306;2022-11-15T20:26:13;11.10;97.50
8707;DHT22;4390;49.302;9.306;2022-11-15T20:28:41;11.20;97.30
8707;DHT22;4390;49.302;9.306;2022-11-15T20:31:10;11.20;97.30
8707;DHT22;4390;49.302;9.306;2022-11-15T20:33:37;11.20;97.30
8707;DHT22;4390;49.302;9.306;2022-11-15T20:36:09;11.20;97.20
8707;DHT22;4390;49.302;9.306;2022-11-15T20:38:37;11.40;96.90
8707;DHT22;4390;49.302;9.306;2022-11-15T20:41:04;11.60;96.50
8707;DHT22;4390;49.302;9.306;2022-11-15T20:43:31;11.50;96.60
8707;DHT22;4390;49.302;9.306;2022-11-15T20:45:58;11.30;96.70
8707;DHT22;4390;49.302;9.306;2022-11-15T20:48:24;11.20;97.10
8707;DHT22;4390;49.302;9.306;2022-11-15T20:53:34;11.10;97.40
8707;DHT22;4390;49.302;9.306;2022-11-15T20:56:04;11.10;97.30
8707;DHT22;4390;49.302;9.306;2022-11-15T20:58:34;11.00;97.40
8707;DHT22;4390;49.302;9.306;2022-11-15T21:01:05;11.10;97.30
8707;DHT22;4390;49.302;9.306;2022-11-15T21:03:34;11.10;97.20
8707;DHT22;4390;49.302;9.306;2022-11-15T21:06:01;11.00;97.20
8707;DHT22;4390;49.302;9.306;2022-11-15T21:08:28;11.10;97.10
8707;DHT22;4390;49.302;9.306;2022-11-15T21:11:15;11.10;97.00
8707;DHT22;4390;49.302;9.306;2022-11-15T21:14:00;11.00;96.80
8707;DHT22;4390;49.302;9.306;2022-11-15T21:16:34;11.00;97.00
8707;DHT22;4390;49.302;9.306;2022-11-15T21:19:01;11.00;97.10
8707;DHT22;4390;49.302;9.306;2022-11-15T21:21:28;11.00;97.00
8707;DHT22;4390;49.302;9.306;2022-11-15T21:23:54;11.00;97.00
8707;DHT22;4390;49.302;9.306;2022-11-15T21:26:21;10.90;97.10
8707;DHT22;4390;49.302;9.306;2022-11-15T21:28:48;11.00;97.00
8707;DHT22;4390;49.302;9.306;2022-11-15T21:31:15;11.00;96.90
8707;DHT22;4390;49.302;9.306;2022-11-15T21:33:41;10.90;97.10
8707;DHT22;4390;49.302;9.306;2022-11-15T21:36:08;10.90;97.20
8707;DHT22;4390;49.302;9.306;2022-11-15T21:38:35;10.90;97.30
8707;DHT22;4390;49.302;9.306;2022-11-15T21:41:03;10.80;97.40
8707;DHT22;4390;49.302;9.306;2022-11-15T21:43:29;11.00;96.80
8707;DHT22;4390;49.302;9.306;2022-11-15T21:46:01;10.90;96.90
8707;DHT22;4390;49.302;9.306;2022-11-15T21:48:30;11.00;97.10
8707;DHT22;4390;49.302;9.306;2022-11-15T21:50:59;11.20;96.70
8707;DHT22;4390;49.302;9.306;2022-11-15T21:53:27;11.20;96.70
8707;DHT22;4390;49.302;9.306;2022-11-15T21:55:54;11.00;96.70
8707;DHT22;4390;49.302;9.306;2022-11-15T21:58:21;11.10;96.60
8707;DHT22;4390;49.302;9.306;2022-11-15T22:00:48;10.90;96.80
8707;DHT22;4390;49.302;9.306;2022-11-15T22:03:34;10.80;97.10
8707;DHT22;4390;49.302;9.306;2022-11-15T22:06:01;10.70;97.40
8707;DHT22;4390;49.302;9.306;2022-11-15T22:08:28;10.70;97.40
8707;DHT22;4390;49.302;9.306;2022-11-15T22:10:57;10.80;97.30
8707;DHT22;4390;49.302;9.306;2022-11-15T22:13:24;10.80;97.20
8707;DHT22;4390;49.302;9.306;2022-11-15T22:15:54;10.70;97.50
8707;DHT22;4390;49.302;9.306;2022-11-15T22:18:23;10.80;97.30
8707;DHT22;4390;49.302;9.306;2022-11-15T22:21:00;10.80;97.30
8707;DHT22;4390;49.302;9.306;2022-11-15T22:23:29;10.70;97.40
8707;DHT22;4390;49.302;9.306;2022-11-15T22:25:56;10.70;97.30
8707;DHT22;4390;49.302;9.306;2022-11-15T22:28:23;10.80;97.30
8707;DHT22;4390;49.302;9.306;2022-11-15T22:30:51;10.80;97.10
8707;DHT22;4390;49.302;9.306;2022-11-15T22:33:21;10.90;97.00
8707;DHT22;4390;49.302;9.306;2022-11-15T22:35:48;10.90;96.80
8707;DHT22;4390;49.302;9.306;2022-11-15T22:38:15;10.80;97.00
8707;DHT22;4390;49.302;9.306;2022-11-15T22:40:42;10.70;97.30
8707;DHT22;4390;49.302;9.306;2022-11-15T22:43:11;10.80;97.30
8707;DHT22;4390;49.302;9.306;2022-11-15T22:48:16;10.90;97.30
8707;DHT22;4390;49.302;9.306;2022-11-15T22:50:43;11.00;96.80
8707;DHT22;4390;49.302;9.306;2022-11-15T22:53:10;10.70;97.20
8707;DHT22;4390;49.302;9.306;2022-11-15T22:55:38;10.60;97.60
8707;DHT22;4390;49.302;9.306;2022-11-15T22:58:05;10.70;97.70
8707;DHT22;4390;49.302;9.306;2022-11-15T23:00:34;10.60;97.30
8707;DHT22;4390;49.302;9.306;2022-11-15T23:03:01;10.50;97.80
8707;DHT22;4390;49.302;9.306;2022-11-15T23:05:28;10.50;97.90
8707;DHT22;4390;49.302;9.306;2022-11-15T23:07:55;10.80;97.90
8707;DHT22;4390;49.302;9.306;2022-11-15T23:10:22;10.60;97.60
8707;DHT22;4390;49.302;9.306;2022-11-15T23:13:16;10.60;97.90
8707;DHT22;4390;49.302;9.306;2022-11-15T23:15:46;10.70;98.10
8707;DHT22;4390;49.302;9.306;2022-11-15T23:18:37;10.40;97.80
8707;DHT22;4390;49.302;9.306;2022-11-15T23:21:12;10.30;98.30
8707;DHT22;4390;49.302;9.306;2022-11-15T23:23:39;10.30;98.30
8707;DHT22;4390;49.302;9.306;2022-11-15T23:26:06;10.30;98.30
8707;DHT22;4390;49.302;9.306;2022-11-15T23:28:33;10.40;98.30
8707;DHT22;4390;49.302;9.306;2022-11-15T23:31:05;10.50;98.30
8707;DHT22;4390;49.302;9.306;2022-11-15T23:33:51;10.50;98.30
8707;DHT22;4390;49.302;9.306;2022-11-15T23:36:25;10.50;98.30
8707;DHT22;4390;49.302;9.306;2022-11-15T23:38:52;10.50;98.30
8707;DHT22;4390;49.302;9.306;2022-11-15T23:41:20;10.60;98.30
8707;DHT22;4390;49.302;9.306;2022-11-15T23:43:47;10.70;98.30
8707;DHT22;4390;49.302;9.306;2022-11-15T23:46:14;10.70;98.30
8707;DHT22;4390;49.302;9.306;2022-11-15T23:48:41;10.60;98.30
8707;DHT22;4390;49.302;9.306;2022-11-15T23:51:08;10.50;98.30
8707;DHT22;4390;49.302;9.306;2022-11-15T23:53:35;10.50;98.30
8707;DHT22;4390;49.302;9.306;2022-11-15T23:56:05;10.60;98.30
8707;DHT22;4390;49.302;9.306;2022-11-15T23:58:33;10.60;98.30
